sensor_id;sensor_type;location;lat;lon;timestamp;temperature;humidity
64858;SHT30;51335;51.148;6.950;2022-08-03T00:00:28;17.85;88.13
64858;SHT30;51335;51.148;6.950;2022-08-03T00:00:58;17.85;88.14
64858;SHT30;51335;51.148;6.950;2022-08-03T00:01:29;17.84;88.16
64858;SHT30;51335;51.148;6.950;2022-08-03T00:01:59;17.86;88.15
64858;SHT30;51335;51.148;6.950;2022-08-03T00:02:29;17.84;88.21
64858;SHT30;51335;51.148;6.950;2022-08-03T00:02:59;17.82;88.22
64858;SHT30;51335;51.148;6.950;2022-08-03T00:03:30;17.86;88.18
64858;SHT30;51335;51.148;6.950;2022-08-03T00:04:00;17.84;88.27
64858;SHT30;51335;51.148;6.950;2022-08-03T00:04:31;17.85;88.37
64858;SHT30;51335;51.148;6.950;2022-08-03T00:05:01;17.82;88.36
64858;SHT30;51335;51.148;6.950;2022-08-03T00:05:31;17.82;88.41
64858;SHT30;51335;51.148;6.950;2022-08-03T00:06:02;17.81;88.41
64858;SHT30;51335;51.148;6.950;2022-08-03T00:06:33;17.78;88.47
64858;SHT30;51335;51.148;6.950;2022-08-03T00:07:03;17.78;88.51
64858;SHT30;51335;51.148;6.950;2022-08-03T00:07:34;17.77;88.50
64858;SHT30;51335;51.148;6.950;2022-08-03T00:08:04;17.74;88.53
64858;SHT30;51335;51.148;6.950;2022-08-03T00:08:34;17.75;88.44
64858;SHT30;51335;51.148;6.950;2022-08-03T00:09:05;17.77;88.38
64858;SHT30;51335;51.148;6.950;2022-08-03T00:09:35;17.75;88.39
64858;SHT30;51335;51.148;6.950;2022-08-03T00:10:06;17.74;88.44
64858;SHT30;51335;51.148;6.950;2022-08-03T00:10:36;17.77;88.52
64858;SHT30;51335;51.148;6.950;2022-08-03T00:11:07;17.78;88.58
64858;SHT30;51335;51.148;6.950;2022-08-03T00:11:37;17.78;88.66
64858;SHT30;51335;51.148;6.950;2022-08-03T00:12:08;17.79;88.74
64858;SHT30;51335;51.148;6.950;2022-08-03T00:12:38;17.79;88.74
64858;SHT30;51335;51.148;6.950;2022-08-03T00:13:08;17.82;88.77
64858;SHT30;51335;51.148;6.950;2022-08-03T00:13:39;17.82;88.66
64858;SHT30;51335;51.148;6.950;2022-08-03T00:14:09;17.84;88.59
64858;SHT30;51335;51.148;6.950;2022-08-03T00:14:39;17.81;88.65
64858;SHT30;51335;51.148;6.950;2022-08-03T00:15:10;17.84;88.66
64858;SHT30;51335;51.148;6.950;2022-08-03T00:15:41;17.82;88.58
64858;SHT30;51335;51.148;6.950;2022-08-03T00:16:12;17.85;88.54
64858;SHT30;51335;51.148;6.950;2022-08-03T00:16:42;17.81;88.54
64858;SHT30;51335;51.148;6.950;2022-08-03T00:17:12;17.79;88.52
64858;SHT30;51335;51.148;6.950;2022-08-03T00:17:43;17.77;88.54
64858;SHT30;51335;51.148;6.950;2022-08-03T00:18:14;17.77;88.61
64858;SHT30;51335;51.148;6.950;2022-08-03T00:18:44;17.78;88.67
64858;SHT30;51335;51.148;6.950;2022-08-03T00:19:14;17.74;88.63
64858;SHT30;51335;51.148;6.950;2022-08-03T00:19:45;17.74;88.58
64858;SHT30;51335;51.148;6.950;2022-08-03T00:20:15;17.75;88.61
64858;SHT30;51335;51.148;6.950;2022-08-03T00:20:45;17.75;88.48
64858;SHT30;51335;51.148;6.950;2022-08-03T00:21:15;17.74;88.53
64858;SHT30;51335;51.148;6.950;2022-08-03T00:21:46;17.74;88.53
64858;SHT30;51335;51.148;6.950;2022-08-03T00:22:16;17.74;88.61
64858;SHT30;51335;51.148;6.950;2022-08-03T00:22:46;17.74;88.69
64858;SHT30;51335;51.148;6.950;2022-08-03T00:23:17;17.74;88.76
64858;SHT30;51335;51.148;6.950;2022-08-03T00:23:47;17.71;88.79
64858;SHT30;51335;51.148;6.950;2022-08-03T00:24:17;17.71;88.79
64858;SHT30;51335;51.148;6.950;2022-08-03T00:24:48;17.74;88.81
64858;SHT30;51335;51.148;6.950;2022-08-03T00:25:18;17.79;88.87
64858;SHT30;51335;51.148;6.950;2022-08-03T00:25:48;17.78;88.93
64858;SHT30;51335;51.148;6.950;2022-08-03T00:26:22;17.78;88.90
64858;SHT30;51335;51.148;6.950;2022-08-03T00:26:52;17.77;88.89
64858;SHT30;51335;51.148;6.950;2022-08-03T00:27:22;17.77;88.94
64858;SHT30;51335;51.148;6.950;2022-08-03T00:27:53;17.74;89.03
64858;SHT30;51335;51.148;6.950;2022-08-03T00:28:23;17.78;89.04
64858;SHT30;51335;51.148;6.950;2022-08-03T00:28:53;17.81;88.97
64858;SHT30;51335;51.148;6.950;2022-08-03T00:29:23;17.82;88.82
64858;SHT30;51335;51.148;6.950;2022-08-03T00:29:54;17.78;88.72
64858;SHT30;51335;51.148;6.950;2022-08-03T00:30:24;17.78;88.68
64858;SHT30;51335;51.148;6.950;2022-08-03T00:30:54;17.74;88.64
64858;SHT30;51335;51.148;6.950;2022-08-03T00:31:25;17.73;88.59
64858;SHT30;51335;51.148;6.950;2022-08-03T00:31:55;17.74;88.61
64858;SHT30;51335;51.148;6.950;2022-08-03T00:32:25;17.73;88.60
64858;SHT30;51335;51.148;6.950;2022-08-03T00:32:56;17.73;88.61
64858;SHT30;51335;51.148;6.950;2022-08-03T00:33:26;17.71;88.55
64858;SHT30;51335;51.148;6.950;2022-08-03T00:33:56;17.68;88.52
64858;SHT30;51335;51.148;6.950;2022-08-03T00:34:27;17.68;88.52
64858;SHT30;51335;51.148;6.950;2022-08-03T00:34:57;17.68;88.58
64858;SHT30;51335;51.148;6.950;2022-08-03T00:35:28;17.67;88.64
64858;SHT30;51335;51.148;6.950;2022-08-03T00:35:59;17.65;88.72
64858;SHT30;51335;51.148;6.950;2022-08-03T00:36:29;17.65;88.76
64858;SHT30;51335;51.148;6.950;2022-08-03T00:36:59;17.63;88.79
64858;SHT30;51335;51.148;6.950;2022-08-03T00:37:29;17.64;88.84
64858;SHT30;51335;51.148;6.950;2022-08-03T00:38:00;17.63;88.92
64858;SHT30;51335;51.148;6.950;2022-08-03T00:38:30;17.64;88.97
64858;SHT30;51335;51.148;6.950;2022-08-03T00:39:00;17.64;89.01
64858;SHT30;51335;51.148;6.950;2022-08-03T00:39:31;17.67;89.03
64858;SHT30;51335;51.148;6.950;2022-08-03T00:40:04;17.70;88.99
64858;SHT30;51335;51.148;6.950;2022-08-03T00:40:35;17.70;88.97
64858;SHT30;51335;51.148;6.950;2022-08-03T00:41:05;17.68;88.94
64858;SHT30;51335;51.148;6.950;2022-08-03T00:41:35;17.70;88.97
64858;SHT30;51335;51.148;6.950;2022-08-03T00:42:06;17.65;88.94
64858;SHT30;51335;51.148;6.950;2022-08-03T00:43:18;17.61;89.10
64858;SHT30;51335;51.148;6.950;2022-08-03T00:43:48;17.64;89.17
64858;SHT30;51335;51.148;6.950;2022-08-03T00:44:18;17.63;89.24
64858;SHT30;51335;51.148;6.950;2022-08-03T00:44:48;17.58;89.28
64858;SHT30;51335;51.148;6.950;2022-08-03T00:45:21;17.57;89.35
64858;SHT30;51335;51.148;6.950;2022-08-03T00:45:52;17.57;89.42
64858;SHT30;51335;51.148;6.950;2022-08-03T00:46:22;17.58;89.49
64858;SHT30;51335;51.148;6.950;2022-08-03T00:46:52;17.54;89.42
64858;SHT30;51335;51.148;6.950;2022-08-03T00:47:23;17.54;89.34
64858;SHT30;51335;51.148;6.950;2022-08-03T00:47:54;17.55;89.33
64858;SHT30;51335;51.148;6.950;2022-08-03T00:48:24;17.54;89.31
64858;SHT30;51335;51.148;6.950;2022-08-03T00:48:55;17.54;89.30
64858;SHT30;51335;51.148;6.950;2022-08-03T00:49:25;17.51;89.31
64858;SHT30;51335;51.148;6.950;2022-08-03T00:49:55;17.53;89.31
64858;SHT30;51335;51.148;6.950;2022-08-03T00:50:30;17.53;89.28
64858;SHT30;51335;51.148;6.950;2022-08-03T00:51:01;17.54;89.29
64858;SHT30;51335;51.148;6.950;2022-08-03T00:51:32;17.51;89.31
64858;SHT30;51335;51.148;6.950;2022-08-03T00:52:03;17.50;89.37
64858;SHT30;51335;51.148;6.950;2022-08-03T00:52:34;17.50;89.33
64858;SHT30;51335;51.148;6.950;2022-08-03T00:53:06;17.51;89.38
64858;SHT30;51335;51.148;6.950;2022-08-03T00:53:36;17.50;89.45
64858;SHT30;51335;51.148;6.950;2022-08-03T00:54:07;17.53;89.46
64858;SHT30;51335;51.148;6.950;2022-08-03T00:54:38;17.50;89.52
64858;SHT30;51335;51.148;6.950;2022-08-03T00:55:09;17.50;89.47
64858;SHT30;51335;51.148;6.950;2022-08-03T00:55:40;17.50;89.53
64858;SHT30;51335;51.148;6.950;2022-08-03T00:56:15;17.50;89.55
64858;SHT30;51335;51.148;6.950;2022-08-03T00:56:46;17.50;89.55
64858;SHT30;51335;51.148;6.950;2022-08-03T00:57:16;17.50;89.51
64858;SHT30;51335;51.148;6.950;2022-08-03T00:57:47;17.53;89.50
64858;SHT30;51335;51.148;6.950;2022-08-03T00:58:17;17.50;89.46
64858;SHT30;51335;51.148;6.950;2022-08-03T00:58:48;17.50;89.46
64858;SHT30;51335;51.148;6.950;2022-08-03T00:59:20;17.48;89.48
64858;SHT30;51335;51.148;6.950;2022-08-03T00:59:50;17.51;89.47
64858;SHT30;51335;51.148;6.950;2022-08-03T01:00:23;17.48;89.55
64858;SHT30;51335;51.148;6.950;2022-08-03T01:00:53;17.50;89.64
64858;SHT30;51335;51.148;6.950;2022-08-03T01:01:24;17.47;89.72
64858;SHT30;51335;51.148;6.950;2022-08-03T01:01:54;17.50;89.72
64858;SHT30;51335;51.148;6.950;2022-08-03T01:02:26;17.48;89.67
64858;SHT30;51335;51.148;6.950;2022-08-03T01:02:56;17.47;89.70
64858;SHT30;51335;51.148;6.950;2022-08-03T01:03:26;17.45;89.88
64858;SHT30;51335;51.148;6.950;2022-08-03T01:03:57;17.50;89.84
64858;SHT30;51335;51.148;6.950;2022-08-03T01:04:27;17.50;89.84
64858;SHT30;51335;51.148;6.950;2022-08-03T01:04:57;17.47;89.85
64858;SHT30;51335;51.148;6.950;2022-08-03T01:05:28;17.47;89.83
64858;SHT30;51335;51.148;6.950;2022-08-03T01:06:18;17.45;89.87
64858;SHT30;51335;51.148;6.950;2022-08-03T01:07:11;17.50;89.87
64858;SHT30;51335;51.148;6.950;2022-08-03T01:08:39;17.53;89.81
64858;SHT30;51335;51.148;6.950;2022-08-03T01:09:20;17.51;89.84
64858;SHT30;51335;51.148;6.950;2022-08-03T01:11:34;17.41;90.12
64858;SHT30;51335;51.148;6.950;2022-08-03T01:12:23;17.41;90.16
64858;SHT30;51335;51.148;6.950;2022-08-03T01:13:59;17.36;90.39
64858;SHT30;51335;51.148;6.950;2022-08-03T01:14:49;17.30;90.51
64858;SHT30;51335;51.148;6.950;2022-08-03T01:15:24;17.30;90.49
64858;SHT30;51335;51.148;6.950;2022-08-03T01:16:11;17.28;90.51
64858;SHT30;51335;51.148;6.950;2022-08-03T01:17:04;17.27;90.44
64858;SHT30;51335;51.148;6.950;2022-08-03T01:18:21;17.27;90.51
64858;SHT30;51335;51.148;6.950;2022-08-03T01:19:01;17.27;90.41
64858;SHT30;51335;51.148;6.950;2022-08-03T01:19:55;17.23;90.40
64858;SHT30;51335;51.148;6.950;2022-08-03T01:20:32;17.22;90.46
64858;SHT30;51335;51.148;6.950;2022-08-03T01:21:09;17.22;90.79
64858;SHT30;51335;51.148;6.950;2022-08-03T01:24:12;17.19;90.53
64858;SHT30;51335;51.148;6.950;2022-08-03T01:26:11;17.13;90.56
64858;SHT30;51335;51.148;6.950;2022-08-03T01:27:02;17.16;90.53
64858;SHT30;51335;51.148;6.950;2022-08-03T01:30:05;17.13;90.65
64858;SHT30;51335;51.148;6.950;2022-08-03T01:30:38;17.13;90.62
64858;SHT30;51335;51.148;6.950;2022-08-03T01:31:10;17.10;90.71
64858;SHT30;51335;51.148;6.950;2022-08-03T01:32:00;17.12;90.72
64858;SHT30;51335;51.148;6.950;2022-08-03T01:32:40;17.12;90.85
64858;SHT30;51335;51.148;6.950;2022-08-03T01:33:16;17.10;90.80
64858;SHT30;51335;51.148;6.950;2022-08-03T01:33:56;17.09;90.83
64858;SHT30;51335;51.148;6.950;2022-08-03T01:34:32;17.09;90.80
64858;SHT30;51335;51.148;6.950;2022-08-03T01:35:09;17.06;90.82
64858;SHT30;51335;51.148;6.950;2022-08-03T01:35:40;17.05;90.84
64858;SHT30;51335;51.148;6.950;2022-08-03T01:36:13;17.03;90.87
64858;SHT30;51335;51.148;6.950;2022-08-03T01:36:51;17.05;90.85
64858;SHT30;51335;51.148;6.950;2022-08-03T01:37:27;17.02;90.91
64858;SHT30;51335;51.148;6.950;2022-08-03T01:38:08;16.99;90.97
64858;SHT30;51335;51.148;6.950;2022-08-03T01:38:44;16.99;90.92
64858;SHT30;51335;51.148;6.950;2022-08-03T01:39:16;16.97;90.89
64858;SHT30;51335;51.148;6.950;2022-08-03T01:39:48;16.99;90.82
64858;SHT30;51335;51.148;6.950;2022-08-03T01:40:19;16.97;90.86
64858;SHT30;51335;51.148;6.950;2022-08-03T01:40:55;16.97;90.90
64858;SHT30;51335;51.148;6.950;2022-08-03T01:41:32;16.96;90.96
64858;SHT30;51335;51.148;6.950;2022-08-03T01:42:05;16.96;91.00
64858;SHT30;51335;51.148;6.950;2022-08-03T01:42:39;16.95;90.99
64858;SHT30;51335;51.148;6.950;2022-08-03T01:43:15;16.95;91.00
64858;SHT30;51335;51.148;6.950;2022-08-03T01:43:48;16.95;90.99
64858;SHT30;51335;51.148;6.950;2022-08-03T01:44:20;16.95;90.99
64858;SHT30;51335;51.148;6.950;2022-08-03T01:44:52;16.90;90.99
64858;SHT30;51335;51.148;6.950;2022-08-03T01:45:24;16.92;91.00
64858;SHT30;51335;51.148;6.950;2022-08-03T01:45:56;16.90;91.02
64858;SHT30;51335;51.148;6.950;2022-08-03T01:46:28;16.90;91.02
64858;SHT30;51335;51.148;6.950;2022-08-03T01:47:01;16.90;91.02
64858;SHT30;51335;51.148;6.950;2022-08-03T01:47:32;16.90;90.98
64858;SHT30;51335;51.148;6.950;2022-08-03T01:48:04;16.89;91.02
64858;SHT30;51335;51.148;6.950;2022-08-03T01:48:37;16.90;90.99
64858;SHT30;51335;51.148;6.950;2022-08-03T01:49:10;16.90;91.04
64858;SHT30;51335;51.148;6.950;2022-08-03T01:49:42;16.89;91.09
64858;SHT30;51335;51.148;6.950;2022-08-03T01:50:17;16.92;91.04
64858;SHT30;51335;51.148;6.950;2022-08-03T01:50:50;16.88;91.11
64858;SHT30;51335;51.148;6.950;2022-08-03T01:51:21;16.88;91.10
64858;SHT30;51335;51.148;6.950;2022-08-03T01:51:52;16.89;91.13
64858;SHT30;51335;51.148;6.950;2022-08-03T01:52:24;16.86;91.18
64858;SHT30;51335;51.148;6.950;2022-08-03T01:52:56;16.86;91.13
64858;SHT30;51335;51.148;6.950;2022-08-03T01:53:28;16.85;91.17
64858;SHT30;51335;51.148;6.950;2022-08-03T01:54:00;16.82;91.27
64858;SHT30;51335;51.148;6.950;2022-08-03T01:54:36;16.83;91.34
64858;SHT30;51335;51.148;6.950;2022-08-03T01:55:10;16.85;91.34
64858;SHT30;51335;51.148;6.950;2022-08-03T01:55:43;16.82;91.29
64858;SHT30;51335;51.148;6.950;2022-08-03T01:56:15;16.82;91.35
64858;SHT30;51335;51.148;6.950;2022-08-03T01:56:48;16.80;91.32
64858;SHT30;51335;51.148;6.950;2022-08-03T01:57:21;16.82;91.34
64858;SHT30;51335;51.148;6.950;2022-08-03T01:57:54;16.83;91.38
64858;SHT30;51335;51.148;6.950;2022-08-03T01:58:25;16.82;91.63
64858;SHT30;51335;51.148;6.950;2022-08-03T01:58:59;16.83;91.56
64858;SHT30;51335;51.148;6.950;2022-08-03T01:59:31;16.82;91.42
64858;SHT30;51335;51.148;6.950;2022-08-03T02:00:04;16.83;91.34
64858;SHT30;51335;51.148;6.950;2022-08-03T02:00:35;16.80;91.35
64858;SHT30;51335;51.148;6.950;2022-08-03T02:01:07;16.82;91.39
64858;SHT30;51335;51.148;6.950;2022-08-03T02:01:39;16.79;91.36
64858;SHT30;51335;51.148;6.950;2022-08-03T02:02:13;16.80;91.36
64858;SHT30;51335;51.148;6.950;2022-08-03T02:02:47;16.85;91.37
64858;SHT30;51335;51.148;6.950;2022-08-03T02:03:20;16.82;91.33
64858;SHT30;51335;51.148;6.950;2022-08-03T02:03:51;16.82;91.47
64858;SHT30;51335;51.148;6.950;2022-08-03T02:04:23;16.82;91.40
64858;SHT30;51335;51.148;6.950;2022-08-03T02:04:55;16.79;91.39
64858;SHT30;51335;51.148;6.950;2022-08-03T02:05:28;16.82;91.44
64858;SHT30;51335;51.148;6.950;2022-08-03T02:05:59;16.82;91.48
64858;SHT30;51335;51.148;6.950;2022-08-03T02:06:32;16.80;91.36
64858;SHT30;51335;51.148;6.950;2022-08-03T02:07:04;16.79;91.38
64858;SHT30;51335;51.148;6.950;2022-08-03T02:07:36;16.78;91.47
64858;SHT30;51335;51.148;6.950;2022-08-03T02:08:12;16.80;91.44
64858;SHT30;51335;51.148;6.950;2022-08-03T02:08:46;16.79;91.44
64858;SHT30;51335;51.148;6.950;2022-08-03T02:09:20;16.82;91.31
64858;SHT30;51335;51.148;6.950;2022-08-03T02:09:53;16.83;91.29
64858;SHT30;51335;51.148;6.950;2022-08-03T02:10:25;16.83;91.31
64858;SHT30;51335;51.148;6.950;2022-08-03T02:10:57;16.82;91.38
64858;SHT30;51335;51.148;6.950;2022-08-03T02:11:30;16.80;91.33
64858;SHT30;51335;51.148;6.950;2022-08-03T02:12:01;16.79;91.39
64858;SHT30;51335;51.148;6.950;2022-08-03T02:12:33;16.83;91.41
64858;SHT30;51335;51.148;6.950;2022-08-03T02:13:06;16.79;91.41
64858;SHT30;51335;51.148;6.950;2022-08-03T02:13:38;16.80;91.34
64858;SHT30;51335;51.148;6.950;2022-08-03T02:14:09;16.78;91.35
64858;SHT30;51335;51.148;6.950;2022-08-03T02:14:42;16.79;91.39
64858;SHT30;51335;51.148;6.950;2022-08-03T02:15:15;16.78;91.41
64858;SHT30;51335;51.148;6.950;2022-08-03T02:15:46;16.78;91.39
64858;SHT30;51335;51.148;6.950;2022-08-03T02:16:18;16.78;91.42
64858;SHT30;51335;51.148;6.950;2022-08-03T02:16:49;16.79;91.36
64858;SHT30;51335;51.148;6.950;2022-08-03T02:17:20;16.80;91.31
64858;SHT30;51335;51.148;6.950;2022-08-03T02:17:52;16.78;91.29
64858;SHT30;51335;51.148;6.950;2022-08-03T02:18:22;16.80;91.31
64858;SHT30;51335;51.148;6.950;2022-08-03T02:18:54;16.79;91.27
64858;SHT30;51335;51.148;6.950;2022-08-03T02:19:25;16.76;91.33
64858;SHT30;51335;51.148;6.950;2022-08-03T02:19:57;16.76;91.31
64858;SHT30;51335;51.148;6.950;2022-08-03T02:20:29;16.78;91.38
64858;SHT30;51335;51.148;6.950;2022-08-03T02:21:02;16.78;91.39
64858;SHT30;51335;51.148;6.950;2022-08-03T02:21:35;16.76;91.42
64858;SHT30;51335;51.148;6.950;2022-08-03T02:22:09;16.73;91.38
64858;SHT30;51335;51.148;6.950;2022-08-03T02:22:41;16.76;91.40
64858;SHT30;51335;51.148;6.950;2022-08-03T02:23:15;16.75;91.40
64858;SHT30;51335;51.148;6.950;2022-08-03T02:23:45;16.76;91.39
64858;SHT30;51335;51.148;6.950;2022-08-03T02:24:16;16.72;91.48
64858;SHT30;51335;51.148;6.950;2022-08-03T02:24:46;16.75;91.50
64858;SHT30;51335;51.148;6.950;2022-08-03T02:25:16;16.76;91.50
64858;SHT30;51335;51.148;6.950;2022-08-03T02:25:51;16.72;91.45
64858;SHT30;51335;51.148;6.950;2022-08-03T02:26:23;16.75;91.45
64858;SHT30;51335;51.148;6.950;2022-08-03T02:26:55;16.72;91.47
64858;SHT30;51335;51.148;6.950;2022-08-03T02:27:28;16.71;91.47
64858;SHT30;51335;51.148;6.950;2022-08-03T02:28:10;16.73;91.50
64858;SHT30;51335;51.148;6.950;2022-08-03T02:28:42;16.75;91.51
64858;SHT30;51335;51.148;6.950;2022-08-03T02:29:19;16.75;91.48
64858;SHT30;51335;51.148;6.950;2022-08-03T02:29:58;16.72;91.40
64858;SHT30;51335;51.148;6.950;2022-08-03T02:30:34;16.72;91.43
64858;SHT30;51335;51.148;6.950;2022-08-03T02:31:10;16.71;91.46
64858;SHT30;51335;51.148;6.950;2022-08-03T02:31:42;16.68;91.42
64858;SHT30;51335;51.148;6.950;2022-08-03T02:32:19;16.68;91.45
64858;SHT30;51335;51.148;6.950;2022-08-03T02:32:54;16.68;91.43
64858;SHT30;51335;51.148;6.950;2022-08-03T02:33:33;16.67;91.46
64858;SHT30;51335;51.148;6.950;2022-08-03T02:34:10;16.68;91.43
64858;SHT30;51335;51.148;6.950;2022-08-03T02:34:44;16.65;91.43
64858;SHT30;51335;51.148;6.950;2022-08-03T02:35:16;16.67;91.44
64858;SHT30;51335;51.148;6.950;2022-08-03T02:35:48;16.65;91.43
64858;SHT30;51335;51.148;6.950;2022-08-03T02:36:23;16.65;91.44
64858;SHT30;51335;51.148;6.950;2022-08-03T02:36:57;16.67;91.40
64858;SHT30;51335;51.148;6.950;2022-08-03T02:37:33;16.65;91.41
64858;SHT30;51335;51.148;6.950;2022-08-03T02:38:06;16.64;91.42
64858;SHT30;51335;51.148;6.950;2022-08-03T02:38:40;16.62;91.47
64858;SHT30;51335;51.148;6.950;2022-08-03T02:39:12;16.65;91.46
64858;SHT30;51335;51.148;6.950;2022-08-03T02:39:46;16.65;91.44
64858;SHT30;51335;51.148;6.950;2022-08-03T02:40:18;16.65;91.40
64858;SHT30;51335;51.148;6.950;2022-08-03T02:40:50;16.65;91.37
64858;SHT30;51335;51.148;6.950;2022-08-03T02:41:27;16.64;91.33
64858;SHT30;51335;51.148;6.950;2022-08-03T02:41:59;16.67;91.27
64858;SHT30;51335;51.148;6.950;2022-08-03T02:42:33;16.69;91.28
64858;SHT30;51335;51.148;6.950;2022-08-03T02:43:07;16.67;91.17
64858;SHT30;51335;51.148;6.950;2022-08-03T02:43:40;16.67;91.17
64858;SHT30;51335;51.148;6.950;2022-08-03T02:44:12;16.67;91.21
64858;SHT30;51335;51.148;6.950;2022-08-03T02:44:47;16.67;91.23
64858;SHT30;51335;51.148;6.950;2022-08-03T02:45:19;16.67;91.23
64858;SHT30;51335;51.148;6.950;2022-08-03T02:45:51;16.68;91.26
64858;SHT30;51335;51.148;6.950;2022-08-03T02:46:25;16.67;91.25
64858;SHT30;51335;51.148;6.950;2022-08-03T02:47:00;16.68;91.28
64858;SHT30;51335;51.148;6.950;2022-08-03T02:47:34;16.65;91.36
64858;SHT30;51335;51.148;6.950;2022-08-03T02:48:05;16.67;91.47
64858;SHT30;51335;51.148;6.950;2022-08-03T02:48:37;16.67;91.41
64858;SHT30;51335;51.148;6.950;2022-08-03T02:49:12;16.73;91.38
64858;SHT30;51335;51.148;6.950;2022-08-03T02:49:45;16.72;91.36
64858;SHT30;51335;51.148;6.950;2022-08-03T02:50:17;16.72;91.40
64858;SHT30;51335;51.148;6.950;2022-08-03T02:50:51;16.72;91.43
64858;SHT30;51335;51.148;6.950;2022-08-03T02:51:23;16.72;91.50
64858;SHT30;51335;51.148;6.950;2022-08-03T02:51:55;16.72;91.52
64858;SHT30;51335;51.148;6.950;2022-08-03T02:52:27;16.69;91.59
64858;SHT30;51335;51.148;6.950;2022-08-03T02:53:00;16.71;91.63
64858;SHT30;51335;51.148;6.950;2022-08-03T02:53:32;16.68;91.76
64858;SHT30;51335;51.148;6.950;2022-08-03T02:54:04;16.69;91.85
64858;SHT30;51335;51.148;6.950;2022-08-03T02:54:37;16.69;91.85
64858;SHT30;51335;51.148;6.950;2022-08-03T02:55:09;16.69;91.94
64858;SHT30;51335;51.148;6.950;2022-08-03T02:55:40;16.71;91.94
64858;SHT30;51335;51.148;6.950;2022-08-03T02:56:12;16.68;91.91
64858;SHT30;51335;51.148;6.950;2022-08-03T02:56:44;16.68;91.87
64858;SHT30;51335;51.148;6.950;2022-08-03T02:57:16;16.65;91.90
64858;SHT30;51335;51.148;6.950;2022-08-03T02:57:48;16.67;91.80
64858;SHT30;51335;51.148;6.950;2022-08-03T02:58:19;16.68;91.73
64858;SHT30;51335;51.148;6.950;2022-08-03T02:58:50;16.65;91.73
64858;SHT30;51335;51.148;6.950;2022-08-03T02:59:22;16.67;91.74
64858;SHT30;51335;51.148;6.950;2022-08-03T02:59:54;16.65;91.79
64858;SHT30;51335;51.148;6.950;2022-08-03T03:00:25;16.64;91.80
64858;SHT30;51335;51.148;6.950;2022-08-03T03:00:56;16.65;91.80
64858;SHT30;51335;51.148;6.950;2022-08-03T03:01:27;16.65;91.81
64858;SHT30;51335;51.148;6.950;2022-08-03T03:01:59;16.65;91.86
64858;SHT30;51335;51.148;6.950;2022-08-03T03:02:31;16.65;91.77
64858;SHT30;51335;51.148;6.950;2022-08-03T03:03:03;16.65;91.89
64858;SHT30;51335;51.148;6.950;2022-08-03T03:03:34;16.64;91.83
64858;SHT30;51335;51.148;6.950;2022-08-03T03:04:06;16.62;91.81
64858;SHT30;51335;51.148;6.950;2022-08-03T03:04:37;16.62;91.71
64858;SHT30;51335;51.148;6.950;2022-08-03T03:05:08;16.64;91.63
64858;SHT30;51335;51.148;6.950;2022-08-03T03:05:40;16.64;91.57
64858;SHT30;51335;51.148;6.950;2022-08-03T03:06:11;16.64;91.46
64858;SHT30;51335;51.148;6.950;2022-08-03T03:06:42;16.65;91.43
64858;SHT30;51335;51.148;6.950;2022-08-03T03:07:13;16.64;91.42
64858;SHT30;51335;51.148;6.950;2022-08-03T03:07:45;16.64;91.39
64858;SHT30;51335;51.148;6.950;2022-08-03T03:08:18;16.64;91.34
64858;SHT30;51335;51.148;6.950;2022-08-03T03:08:50;16.61;91.39
64858;SHT30;51335;51.148;6.950;2022-08-03T03:09:21;16.61;91.44
64858;SHT30;51335;51.148;6.950;2022-08-03T03:09:51;16.62;91.45
64858;SHT30;51335;51.148;6.950;2022-08-03T03:10:23;16.58;91.51
64858;SHT30;51335;51.148;6.950;2022-08-03T03:10:56;16.62;91.48
64858;SHT30;51335;51.148;6.950;2022-08-03T03:11:27;16.59;91.51
64858;SHT30;51335;51.148;6.950;2022-08-03T03:11:59;16.57;91.56
64858;SHT30;51335;51.148;6.950;2022-08-03T03:12:30;16.55;91.58
64858;SHT30;51335;51.148;6.950;2022-08-03T03:13:02;16.58;91.68
64858;SHT30;51335;51.148;6.950;2022-08-03T03:13:32;16.55;91.67
64858;SHT30;51335;51.148;6.950;2022-08-03T03:14:03;16.55;91.67
64858;SHT30;51335;51.148;6.950;2022-08-03T03:14:36;16.58;91.63
64858;SHT30;51335;51.148;6.950;2022-08-03T03:15:06;16.57;91.58
64858;SHT30;51335;51.148;6.950;2022-08-03T03:15:37;16.57;91.58
64858;SHT30;51335;51.148;6.950;2022-08-03T03:16:08;16.55;91.61
64858;SHT30;51335;51.148;6.950;2022-08-03T03:16:41;16.55;91.59
64858;SHT30;51335;51.148;6.950;2022-08-03T03:17:14;16.52;91.61
64858;SHT30;51335;51.148;6.950;2022-08-03T03:17:48;16.54;91.60
64858;SHT30;51335;51.148;6.950;2022-08-03T03:18:20;16.54;91.58
64858;SHT30;51335;51.148;6.950;2022-08-03T03:18:51;16.49;91.59
64858;SHT30;51335;51.148;6.950;2022-08-03T03:19:23;16.49;91.58
64858;SHT30;51335;51.148;6.950;2022-08-03T03:19:54;16.48;91.61
64858;SHT30;51335;51.148;6.950;2022-08-03T03:20:25;16.48;91.68
64858;SHT30;51335;51.148;6.950;2022-08-03T03:20:58;16.48;91.64
64858;SHT30;51335;51.148;6.950;2022-08-03T03:21:30;16.48;91.61
64858;SHT30;51335;51.148;6.950;2022-08-03T03:22:01;16.48;91.66
64858;SHT30;51335;51.148;6.950;2022-08-03T03:22:32;16.47;91.67
64858;SHT30;51335;51.148;6.950;2022-08-03T03:23:04;16.47;91.67
64858;SHT30;51335;51.148;6.950;2022-08-03T03:23:36;16.45;91.69
64858;SHT30;51335;51.148;6.950;2022-08-03T03:24:06;16.42;91.71
64858;SHT30;51335;51.148;6.950;2022-08-03T03:24:38;16.47;91.68
64858;SHT30;51335;51.148;6.950;2022-08-03T03:25:10;16.47;91.66
64858;SHT30;51335;51.148;6.950;2022-08-03T03:25:41;16.47;91.68
64858;SHT30;51335;51.148;6.950;2022-08-03T03:26:13;16.47;91.74
64858;SHT30;51335;51.148;6.950;2022-08-03T03:26:43;16.45;91.77
64858;SHT30;51335;51.148;6.950;2022-08-03T03:27:14;16.45;91.74
64858;SHT30;51335;51.148;6.950;2022-08-03T03:27:44;16.48;91.78
64858;SHT30;51335;51.148;6.950;2022-08-03T03:28:15;16.45;91.67
64858;SHT30;51335;51.148;6.950;2022-08-03T03:28:45;16.48;91.82
64858;SHT30;51335;51.148;6.950;2022-08-03T03:29:16;16.51;91.74
64858;SHT30;51335;51.148;6.950;2022-08-03T03:29:47;16.52;91.67
64858;SHT30;51335;51.148;6.950;2022-08-03T03:30:18;16.52;91.62
64858;SHT30;51335;51.148;6.950;2022-08-03T03:30:48;16.52;91.63
64858;SHT30;51335;51.148;6.950;2022-08-03T03:31:19;16.51;91.68
64858;SHT30;51335;51.148;6.950;2022-08-03T03:31:49;16.49;91.70
64858;SHT30;51335;51.148;6.950;2022-08-03T03:32:20;16.52;91.76
64858;SHT30;51335;51.148;6.950;2022-08-03T03:32:50;16.51;91.78
64858;SHT30;51335;51.148;6.950;2022-08-03T03:33:21;16.49;91.76
64858;SHT30;51335;51.148;6.950;2022-08-03T03:33:52;16.48;91.75
64858;SHT30;51335;51.148;6.950;2022-08-03T03:34:22;16.49;91.78
64858;SHT30;51335;51.148;6.950;2022-08-03T03:34:54;16.48;91.83
64858;SHT30;51335;51.148;6.950;2022-08-03T03:35:26;16.45;92.14
64858;SHT30;51335;51.148;6.950;2022-08-03T03:35:57;16.45;92.12
64858;SHT30;51335;51.148;6.950;2022-08-03T03:36:27;16.45;92.10